Camp Springs, North Carolina
Current Conditions -  °F | °C
As of 12:55 PM on Friday 21 Nov 2014 (Local Time) from KSIF Reporting Station
Clear Clear  
Wind Chill: 40°   Ceiling: Unl
Heat Index: 43°   Visibility: 10mi
Dew Point: 11°   Wind: 5mph
Humidity: 28%   Direction: 300°WNW
Pressure: 30.44"   Gusts: NA
Location:  36.3355°N, 79.6561°W
Report Text: KSIF 211755Z AUTO 30004KT 10SM CLR 06/M11 A3044 RMK AO2 T00601114 10063 20000
Loading
Personal Weather Stations






























Interactive Weather Map New forecast layout! Learn more

10-Day Weather Forecast

Advertisements
Track Severe Weather on mobile